Time;durP1;ratioP1;P1;durP2;ratioP2;P2;SDS_P1;SDS_P2;PMS_P1;PMS_P2;Temp;Humidity;BMP_temperature;BMP_pressure;BME280_temperature;BME280_humidity;BME280_pressure;Samples;Min_cycle;Max_cycle;Signal;HPM_P1;HPM_P2
2024/01/27 00:00:28;;;;;;;0.77;0.77;;;;;;;;;;5095160;28;20865;-79
2024/01/27 00:02:55;;;;;;;0.87;0.50;;;;;;;;;;5095059;28;20444;-79
2024/01/27 00:05:22;;;;;;;3.60;0.50;;;;;;;;;;5094674;28;20464;-79
2024/01/27 00:07:51;;;;;;;1.77;0.50;;;2.70;99.90;;;;;;5095110;28;20786;-79
2024/01/27 00:10:18;;;;;;;0.50;0.30;;;2.50;99.90;;;;;;5095269;28;20496;-79
2024/01/27 00:12:46;;;;;;;0.70;0.60;;;;;;;;;;5094680;28;20448;-79
2024/01/27 00:15:13;;;;;;;0.40;0.30;;;;;;;;;;5094704;28;20443;-79
2024/01/27 00:17:40;;;;;;;1.07;0.50;;;;;;;;;;5095168;28;20444;-79
2024/01/27 00:20:08;;;;;;;0.40;0.40;;;2.60;99.90;;;;;;5094568;28;20442;-80
2024/01/27 00:22:35;;;;;;;5.47;0.40;;;;;;;;;;5094520;28;20502;-79
2024/01/27 00:25:03;;;;;;;0.40;0.30;;;2.50;99.90;;;;;;5094384;28;20450;-79
2024/01/27 00:27:31;;;;;;;0.47;0.47;;;;;;;;;;5094513;28;20436;-79
2024/01/27 00:29:58;;;;;;;0.30;0.30;;;;;;;;;;5094426;28;20929;-79
2024/01/27 00:32:25;;;;;;;0.30;0.20;;;;;;;;;;5094422;28;20452;-79
2024/01/27 00:34:54;;;;;;;0.47;0.30;;;2.40;99.90;;;;;;5094703;28;20446;-79
2024/01/27 00:37:21;;;;;;;0.40;0.40;;;;;;;;;;5095726;28;20456;-79
2024/01/27 00:39:48;;;;;;;0.30;0.20;;;;;;;;;;5096188;28;20440;-79
2024/01/27 00:42:18;;;;;;;0.67;0.30;;;2.30;99.90;;;;;;5094392;28;20474;-79
2024/01/27 00:44:46;;;;;;;0.30;0.30;;;;;;;;;;5094339;28;20455;-79
2024/01/27 00:47:13;;;;;;;2.50;0.40;;;;;;;;;;5094470;28;20440;-79
2024/01/27 00:49:40;;;;;;;0.30;0.30;;;;;;;;;;5093829;28;20478;-79
2024/01/27 00:52:07;;;;;;;0.30;0.30;;;;;;;;;;5093730;28;20555;-79
2024/01/27 00:54:34;;;;;;;0.50;0.30;;;;;;;;;;5093917;28;20535;-79
2024/01/27 00:57:01;;;;;;;0.53;0.30;;;;;;;;;;5093957;28;20475;-79
2024/01/27 00:59:30;;;;;;;3.50;0.87;;;2.20;99.90;;;;;;5094108;28;20527;-80
2024/01/27 01:01:57;;;;;;;0.60;0.60;;;;;;;;;;5093639;28;20490;-79
2024/01/27 01:04:24;;;;;;;0.30;0.30;;;2.20;99.90;;;;;;5094524;28;20501;-79
2024/01/27 01:06:50;;;;;;;0.40;0.30;;;2.20;99.90;;;;;;5093857;28;20440;-79
2024/01/27 01:09:18;;;;;;;0.80;0.40;;;;;;;;;;5093586;28;20479;-79
2024/01/27 01:11:45;;;;;;;0.40;0.40;;;;;;;;;;5093770;28;20549;-78
2024/01/27 01:14:12;;;;;;;0.50;0.50;;;;;;;;;;5093602;28;20428;-79
2024/01/27 01:16:40;;;;;;;0.30;0.30;;;2.10;99.90;;;;;;5093698;28;20448;-79
2024/01/27 01:19:08;;;;;;;0.40;0.30;;;;;;;;;;5093769;28;20557;-79
2024/01/27 01:21:35;;;;;;;0.40;0.30;;;;;;;;;;5093627;28;20474;-79
2024/01/27 01:24:02;;;;;;;0.30;0.30;;;;;;;;;;5093658;28;20941;-79
2024/01/27 01:26:29;;;;;;;0.40;0.40;;;;;;;;;;5093336;28;20440;-79
2024/01/27 01:28:57;;;;;;;0.70;0.47;;;;;;;;;;5093566;28;20555;-79
2024/01/27 01:31:24;;;;;;;0.30;0.30;;;;;;;;;;5093246;28;20452;-79
2024/01/27 01:33:52;;;;;;;0.60;0.40;;;2.00;99.90;;;;;;5093756;28;20523;-79
2024/01/27 01:36:20;;;;;;;0.30;0.30;;;;;;;;;;5093553;28;20506;-79
2024/01/27 01:38:47;;;;;;;0.50;0.50;;;2.00;99.90;;;;;;5093340;28;20448;-79
2024/01/27 01:41:14;;;;;;;0.60;0.60;;;;;;;;;;5093211;28;20455;-79
2024/01/27 01:43:41;;;;;;;1.50;0.97;;;;;;;;;;5093584;28;20432;-79
2024/01/27 01:46:08;;;;;;;0.80;0.60;;;;;;;;;;5093609;28;20454;-79
2024/01/27 01:48:35;;;;;;;0.80;0.47;;;;;;;;;;5093557;28;20476;-79
2024/01/27 01:51:04;;;;;;;0.77;0.57;;;1.80;99.90;;;;;;5094232;28;20472;-80
2024/01/27 01:53:31;;;;;;;1.57;0.90;;;;;;;;;;5094082;28;20456;-79
2024/01/27 01:55:58;;;;;;;0.67;0.60;;;;;;;;;;5093439;28;20961;-79
2024/01/27 01:58:26;;;;;;;1.17;0.53;;;;;;;;;;5093523;28;20443;-79
2024/01/27 02:00:54;;;;;;;9.83;0.70;;;;;;;;;;5092975;28;20941;-80
2024/01/27 02:03:21;;;;;;;0.30;0.30;;;;;;;;;;5093425;28;20428;-79
2024/01/27 02:05:48;;;;;;;0.40;0.40;;;;;;;;;;5093099;28;20928;-79
2024/01/27 02:08:16;;;;;;;4.93;0.73;;;1.70;99.90;;;;;;5096839;28;20443;-80
2024/01/27 02:10:43;;;;;;;0.30;0.30;;;;;;;;;;5096782;28;20578;-80
2024/01/27 02:13:18;;;;;;;0.40;0.30;;;1.70;99.90;;;;;;5097289;28;20450;-80
2024/01/27 02:15:45;;;;;;;0.40;0.37;;;;;;;;;;5096900;28;20439;-80
2024/01/27 02:18:13;;;;;;;1.23;0.60;;;;;;;;;;5097127;28;20436;-80
2024/01/27 02:20:40;;;;;;;1.33;0.40;;;;;;;;;;5096915;28;20460;-80
2024/01/27 02:23:07;;;;;;;0.90;0.60;;;;;;;;;;5096960;28;20444;-80
2024/01/27 02:25:36;;;;;;;0.30;0.30;;;1.60;99.90;;;;;;5096963;28;20452;-80
2024/01/27 02:28:03;;;;;;;0.30;0.30;;;;;;;;;;5096641;28;20438;-80
2024/01/27 02:30:30;;;;;;;1.23;0.40;;;;;;;;;;5096723;28;20850;-80
2024/01/27 02:32:58;;;;;;;0.40;0.40;;;1.50;99.90;;;;;;5096682;28;20444;-80
2024/01/27 02:35:25;;;;;;;0.50;0.30;;;;;;;;;;5096934;28;20628;-79
2024/01/27 02:37:52;;;;;;;0.60;0.60;;;;;;;;;;5096461;28;20443;-79
2024/01/27 02:40:19;;;;;;;0.40;0.37;;;;;;;;;;5096355;28;20468;-79
2024/01/27 02:42:47;;;;;;;0.30;0.30;;;1.50;99.90;;;;;;5096450;28;20816;-79
2024/01/27 02:45:14;;;;;;;1.00;0.70;;;;;;;;;;5096652;28;20818;-79
2024/01/27 02:47:42;;;;;;;0.40;0.40;;;;;;;;;;5096254;28;20436;-79
2024/01/27 02:50:09;;;;;;;0.50;0.37;;;1.40;99.90;;;;;;5098217;28;20995;-80
2024/01/27 02:52:36;;;;;;;0.80;0.30;;;;;;;;;;5096803;28;20451;-79
2024/01/27 02:55:03;;;;;;;0.50;0.50;;;;;;;;;;5096230;28;20451;-79
2024/01/27 02:57:31;;;;;;;1.23;1.00;;;;;;;;;;5098612;28;20448;-78
2024/01/27 02:59:59;;;;;;;0.30;0.30;;;1.40;99.90;;;;;;5102926;28;20448;-79
2024/01/27 03:02:26;;;;;;;0.70;0.70;;;;;;;;;;5102882;28;20428;-79
2024/01/27 03:04:53;;;;;;;0.40;0.40;;;;;;;;;;5104693;28;20455;-79
2024/01/27 03:07:20;;;;;;;0.80;0.50;;;;;;;;;;5112266;28;20546;-78
2024/01/27 03:09:47;;;;;;;0.80;0.50;;;;;;;;;;5111001;28;20495;-79
2024/01/27 03:12:15;;;;;;;0.60;0.60;;;;;;;;;;5111020;28;20986;-79
2024/01/27 03:14:42;;;;;;;0.30;0.30;;;1.40;99.90;;;;;;5108750;28;20440;-78
2024/01/27 03:17:10;;;;;;;1.03;0.93;;;0.90;99.90;;;;;;5102747;28;20526;-79
2024/01/27 03:19:37;;;;;;;0.40;0.40;;;2.40;99.90;;;;;;5096890;28;20443;-79
2024/01/27 03:22:04;;;;;;;0.47;0.47;;;3.30;99.90;;;;;;5097357;28;20451;-79
2024/01/27 03:24:31;;;;;;;1.90;1.70;;;;;;;;;;5096921;28;20444;-79
2024/01/27 03:26:58;;;;;;;0.60;0.60;;;;;;;;;;5096577;28;20437;-79
2024/01/27 03:29:25;;;;;;;0.43;0.43;;;;;;;;;;5096065;28;20498;-79
2024/01/27 03:31:52;;;;;;;0.40;0.33;;;;;;;;;;5096683;28;20442;-79
2024/01/27 03:34:24;;;;;;;0.30;0.30;;;1.30;99.90;;;;;;5095910;28;20963;-79
2024/01/27 03:36:51;;;;;;;0.50;0.50;;;1.40;99.90;;;;;;5096434;28;20488;-79
2024/01/27 03:39:18;;;;;;;0.40;0.37;;;1.20;99.90;;;;;;5096648;28;20968;-79
2024/01/27 03:41:45;;;;;;;0.43;0.43;;;1.10;99.90;;;;;;5096349;28;20456;-79
2024/01/27 03:44:12;;;;;;;0.50;0.50;;;0.80;99.90;;;;;;5096290;28;20460;-79
2024/01/27 03:46:39;;;;;;;0.30;0.30;;;;;;;;;;5096172;28;20428;-79
2024/01/27 03:49:06;;;;;;;0.40;0.33;;;;;;;;;;5096244;28;20497;-79
2024/01/27 03:51:34;;;;;;;0.30;0.30;;;1.30;99.90;;;;;;5096611;28;20464;-79
2024/01/27 03:54:01;;;;;;;0.60;0.60;;;;;;;;;;5096094;28;20437;-79
2024/01/27 03:56:28;;;;;;;0.40;0.40;;;1.20;99.90;;;;;;5096330;28;20451;-79
2024/01/27 03:58:55;;;;;;;0.50;0.30;;;0.60;99.90;;;;;;5095728;28;20446;-79
2024/01/27 04:01:22;;;;;;;0.33;0.33;;;;;;;;;;5094897;28;20484;-79
2024/01/27 04:03:49;;;;;;;0.43;0.40;;;1.20;99.90;;;;;;5095346;28;20440;-79
2024/01/27 04:06:16;;;;;;;0.50;0.50;;;;;;;;;;5095356;28;20448;-80
2024/01/27 04:08:44;;;;;;;0.37;0.37;;;1.10;99.90;;;;;;5095022;28;20444;-80
2024/01/27 04:11:20;;;;;;;0.30;0.30;;;-0.80;99.90;;;;;;5094837;28;20488;-79
2024/01/27 04:13:47;;;;;;;0.30;0.30;;;;;;;;;;5095052;28;20420;-79
2024/01/27 04:16:13;;;;;;;0.30;0.30;;;1.00;99.90;;;;;;5094823;28;20442;-79
2024/01/27 04:18:40;;;;;;;0.30;0.30;;;2.60;99.90;;;;;;5094629;28;20521;-78
2024/01/27 04:21:07;;;;;;;1.30;0.57;;;0.40;99.90;;;;;;5094524;28;20829;-79
2024/01/27 04:23:34;;;;;;;0.30;0.30;;;;;;;;;;5094808;28;20950;-79
2024/01/27 04:26:03;;;;;;;0.40;0.40;;;1.00;99.90;;;;;;5094677;28;20454;-79
2024/01/27 04:28:30;;;;;;;0.40;0.40;;;3.20;99.90;;;;;;5094539;28;20440;-79
2024/01/27 04:30:57;;;;;;;1.50;0.83;;;0.90;99.90;;;;;;5094491;28;20495;-79
2024/01/27 04:33:23;;;;;;;2.07;0.40;;;2.80;99.90;;;;;;5094842;28;20451;-79
2024/01/27 04:35:50;;;;;;;2.60;0.83;;;;;;;;;;5094282;28;20448;-79
2024/01/27 04:38:17;;;;;;;0.80;0.40;;;;;;;;;;5094567;28;20803;-79
2024/01/27 04:40:44;;;;;;;0.40;0.40;;;;;;;;;;5094174;28;20820;-80
2024/01/27 04:43:16;;;;;;;1.50;0.60;;;1.00;99.90;;;;;;5094637;28;20436;-79
2024/01/27 04:45:43;;;;;;;0.53;0.53;;;;;;;;;;5094328;28;20428;-79
2024/01/27 04:48:09;;;;;;;0.60;0.40;;;1.00;99.90;;;;;;5094230;28;20432;-78
2024/01/27 04:50:36;;;;;;;0.40;0.30;;;1.10;99.90;;;;;;5093743;28;20490;-79
2024/01/27 04:53:04;;;;;;;0.53;0.53;;;2.70;99.90;;;;;;5094159;28;20470;-79
2024/01/27 04:55:31;;;;;;;0.40;0.40;;;0.90;99.90;;;;;;5094671;28;20447;-79
2024/01/27 04:57:58;;;;;;;2.43;0.40;;;0.70;99.90;;;;;;5094077;28;20454;-79
2024/01/27 05:00:28;;;;;;;0.73;0.73;;;0.90;99.90;;;;;;5093867;28;20480;-79
2024/01/27 05:02:55;;;;;;;0.40;0.40;;;2.60;99.90;;;;;;5095672;28;20444;-79
2024/01/27 05:05:22;;;;;;;0.40;0.40;;;2.60;99.90;;;;;;5094723;28;20440;-79
2024/01/27 05:07:49;;;;;;;0.93;0.40;;;0.90;99.90;;;;;;5093629;28;20451;-79
2024/01/27 05:10:16;;;;;;;4.10;0.50;;;0.90;99.90;;;;;;5094463;28;20484;-79
2024/01/27 05:12:44;;;;;;;0.60;0.40;;;0.90;99.90;;;;;;5095515;28;21008;-79
2024/01/27 05:15:11;;;;;;;0.40;0.40;;;0.90;99.90;;;;;;5095460;28;20451;-79
2024/01/27 05:17:39;;;;;;;0.90;0.40;;;0.90;99.90;;;;;;5096280;28;20986;-79
2024/01/27 05:20:08;;;;;;;0.40;0.40;;;0.80;99.90;;;;;;5093866;28;20933;-79
2024/01/27 05:22:34;;;;;;;0.50;0.30;;;0.80;99.90;;;;;;5093537;28;20519;-79
2024/01/27 05:25:02;;;;;;;0.30;0.30;;;0.70;99.90;;;;;;5093724;28;20432;-79
2024/01/27 05:27:29;;;;;;;0.50;0.50;;;;;;;;;;5094010;28;20535;-79
2024/01/27 05:29:55;;;;;;;0.73;0.50;;;0.80;99.90;;;;;;5093572;28;20440;-79
2024/01/27 05:32:21;;;;;;;0.53;0.53;;;0.70;99.90;;;;;;5093636;28;20444;-79
2024/01/27 05:34:50;;;;;;;0.30;0.30;;;0.70;99.90;;;;;;5093842;28;20203;-79
2024/01/27 05:37:17;;;;;;;0.53;0.47;;;;;;;;;;5094068;28;20451;-79
2024/01/27 05:39:44;;;;;;;0.30;0.30;;;;;;;;;;5094320;28;20444;-79
2024/01/27 05:42:11;;;;;;;0.33;0.33;;;;;;;;;;5095891;28;20551;-79
2024/01/27 05:44:40;;;;;;;0.43;0.43;;;0.80;99.90;;;;;;5097658;28;20438;-79
2024/01/27 05:47:07;;;;;;;0.50;0.50;;;2.80;99.90;;;;;;5097827;28;20456;-79
2024/01/27 05:49:34;;;;;;;0.73;0.73;;;0.70;99.90;;;;;;5098553;28;20523;-79
2024/01/27 05:52:02;;;;;;;2.97;0.60;;;0.70;99.90;;;;;;5097277;28;20484;-79
2024/01/27 05:54:28;;;;;;;0.40;0.40;;;0.50;99.90;;;;;;5097761;28;20531;-79
2024/01/27 05:56:55;;;;;;;1.03;0.40;;;0.50;99.90;;;;;;5097487;28;20808;-79
2024/01/27 05:59:23;;;;;;;0.40;0.40;;;;;;;;;;5097296;28;20451;-80
2024/01/27 06:01:50;;;;;;;0.40;0.30;;;;;;;;;;5097069;28;20471;-79
2024/01/27 06:04:17;;;;;;;0.67;0.47;;;;;;;;;;5097479;28;20443;-79
2024/01/27 06:06:44;;;;;;;0.63;0.60;;;0.70;99.90;;;;;;5097306;28;20527;-79
2024/01/27 06:09:13;;;;;;;0.40;0.30;;;0.80;99.90;;;;;;5097119;28;20977;-79
2024/01/27 06:11:40;;;;;;;0.80;0.50;;;0.70;99.90;;;;;;5097104;28;20570;-79
2024/01/27 06:14:07;;;;;;;0.70;0.70;;;0.50;99.90;;;;;;5097324;28;20962;-79
2024/01/27 06:16:35;;;;;;;7.87;0.50;;;0.70;99.90;;;;;;5096796;28;20459;-79
2024/01/27 06:19:02;;;;;;;1.80;0.60;;;2.80;99.90;;;;;;5097017;28;20943;-79
2024/01/27 06:21:29;;;;;;;0.40;0.40;;;;;;;;;;5096953;28;20551;-79
2024/01/27 06:23:56;;;;;;;0.40;0.30;;;;;;;;;;5096958;28;20798;-79
2024/01/27 06:26:24;;;;;;;0.50;0.50;;;0.60;99.90;;;;;;5097001;28;20432;-79
2024/01/27 06:28:51;;;;;;;0.50;0.40;;;0.60;99.90;;;;;;5097037;28;20421;-79
2024/01/27 06:31:18;;;;;;;1.63;0.50;;;;;;;;;;5096884;28;20516;-79
2024/01/27 06:33:45;;;;;;;0.80;0.77;;;;;;;;;;5097426;28;20443;-79
2024/01/27 06:36:12;;;;;;;1.43;0.40;;;;;;;;;;5096870;28;20991;-79
2024/01/27 06:38:39;;;;;;;1.67;0.53;;;;;;;;;;5096875;28;20450;-79
2024/01/27 06:41:06;;;;;;;0.47;0.47;;;0.50;99.90;;;;;;5096712;28;20466;-79
2024/01/27 06:43:34;;;;;;;1.17;0.87;;;0.40;99.90;;;;;;5096674;28;20443;-79
2024/01/27 06:46:01;;;;;;;0.60;0.60;;;;;;;;;;5096975;28;20459;-79
2024/01/27 06:48:28;;;;;;;0.40;0.30;;;;;;;;;;5096539;28;20459;-79
2024/01/27 06:50:55;;;;;;;0.47;0.47;;;0.40;99.90;;;;;;5096520;28;20494;-79
2024/01/27 06:53:22;;;;;;;0.97;0.40;;;1.10;99.90;;;;;;5095496;28;20444;-79
2024/01/27 06:55:49;;;;;;;0.80;0.70;;;;;;;;;;5096661;28;20440;-79
2024/01/27 06:58:16;;;;;;;1.43;0.87;;;0.50;99.90;;;;;;5096381;28;20434;-79
2024/01/27 07:00:44;;;;;;;0.70;0.70;;;0.30;99.90;;;;;;5096981;28;20494;-79
2024/01/27 07:03:11;;;;;;;1.50;1.07;;;0.40;99.90;;;;;;5096449;28;20474;-79
2024/01/27 07:05:40;;;;;;;0.40;0.40;;;0.40;99.90;;;;;;5096185;28;20431;-79
2024/01/27 07:08:07;;;;;;;1.27;1.13;;;0.40;99.90;;;;;;5096227;28;20475;-79
2024/01/27 07:10:34;;;;;;;0.67;0.43;;;0.40;99.90;;;;;;5098738;28;21003;-79
2024/01/27 07:13:01;;;;;;;1.73;0.40;;;0.40;99.90;;;;;;5096092;28;20440;-79
2024/01/27 07:15:28;;;;;;;0.50;0.50;;;0.40;99.90;;;;;;5097147;28;20824;-79
2024/01/27 07:17:56;;;;;;;0.50;0.50;;;0.40;99.90;;;;;;5096911;28;20455;-79
2024/01/27 07:20:24;;;;;;;1.90;1.10;;;0.40;99.90;;;;;;5096229;28;20452;-79
2024/01/27 07:22:51;;;;;;;1.00;0.60;;;0.10;99.90;;;;;;5096246;28;20456;-79
2024/01/27 07:25:18;;;;;;;0.60;0.60;;;2.50;99.90;;;;;;5095807;28;20527;-79
2024/01/27 07:27:45;;;;;;;1.73;1.03;;;0.40;99.90;;;;;;5096298;28;20444;-79
2024/01/27 07:30:13;;;;;;;0.33;0.33;;;2.00;99.90;;;;;;5095881;28;20514;-79
2024/01/27 07:32:40;;;;;;;1.90;0.40;;;0.40;99.90;;;;;;5096008;28;20432;-79
2024/01/27 07:35:09;;;;;;;1.10;1.10;;;0.40;99.90;;;;;;5096478;28;20964;-78
2024/01/27 07:37:36;;;;;;;1.90;0.60;;;0.40;99.90;;;;;;5096673;28;20518;-78
2024/01/27 07:40:03;;;;;;;0.60;0.60;;;0.50;99.90;;;;;;5096011;28;20834;-78
2024/01/27 07:42:29;;;;;;;0.30;0.30;;;0.50;99.90;;;;;;5095496;28;20444;-78
2024/01/27 07:44:56;;;;;;;1.57;0.93;;;0.50;99.90;;;;;;5095481;28;20444;-78
2024/01/27 07:47:23;;;;;;;0.50;0.50;;;0.60;99.90;;;;;;5095449;28;20447;-78
2024/01/27 07:49:49;;;;;;;0.73;0.50;;;0.60;99.90;;;;;;5095313;28;20443;-78
2024/01/27 07:52:18;;;;;;;0.67;0.40;;;-0.20;99.90;;;;;;5094932;28;20479;-79
2024/01/27 07:54:45;;;;;;;0.60;0.43;;;2.10;99.90;;;;;;5095097;28;20848;-79
2024/01/27 07:57:12;;;;;;;0.50;0.50;;;;;;;;;;5095001;28;20522;-79
2024/01/27 07:59:39;;;;;;;0.53;0.43;;;0.60;99.90;;;;;;5097348;28;20448;-78
2024/01/27 08:02:06;;;;;;;0.57;0.40;;;0.70;99.90;;;;;;5096009;28;20475;-78
2024/01/27 08:04:33;;;;;;;0.50;0.40;;;0.50;99.90;;;;;;5094897;28;20447;-78
2024/01/27 08:07:05;;;;;;;1.50;1.40;;;0.70;99.90;;;;;;5095429;28;20777;-79
2024/01/27 08:09:34;;;;;;;3.30;0.63;;;1.40;99.90;;;;;;5096136;28;20458;-78
2024/01/27 08:12:01;;;;;;;0.50;0.50;;;0.70;99.90;;;;;;5095702;28;20976;-79
2024/01/27 08:14:29;;;;;;;1.77;0.63;;;0.80;99.90;;;;;;5095244;28;20448;-78
2024/01/27 08:16:56;;;;;;;2.33;2.13;;;0.90;99.90;;;;;;5094783;28;20535;-78
2024/01/27 08:19:24;;;;;;;0.37;0.37;;;0.90;99.90;;;;;;5094814;28;20440;-78
2024/01/27 08:21:51;;;;;;;0.60;0.53;;;0.90;99.90;;;;;;5094654;28;20833;-79
2024/01/27 08:24:18;;;;;;;0.50;0.37;;;1.00;99.90;;;;;;5095220;28;20459;-78
2024/01/27 08:26:46;;;;;;;1.17;0.77;;;1.10;99.90;;;;;;5095823;28;20452;-79
2024/01/27 08:29:13;;;;;;;0.40;0.30;;;1.20;99.90;;;;;;5095788;28;20444;-78
2024/01/27 08:31:39;;;;;;;0.37;0.33;;;1.20;99.90;;;;;;5094719;28;20476;-79
2024/01/27 08:34:06;;;;;;;0.50;0.40;;;1.30;99.90;;;;;;5094473;28;20432;-79
2024/01/27 08:36:33;;;;;;;0.40;0.40;;;1.40;99.90;;;;;;5094796;28;20452;-79
2024/01/27 08:39:00;;;;;;;0.33;0.33;;;1.50;99.90;;;;;;5094429;28;20437;-78
2024/01/27 08:41:27;;;;;;;1.27;0.80;;;1.60;99.90;;;;;;5094309;28;20460;-78
2024/01/27 08:43:55;;;;;;;1.10;1.00;;;1.70;99.90;;;;;;5094627;28;20444;-78
2024/01/27 08:46:22;;;;;;;2.97;1.43;;;1.80;99.90;;;;;;5094475;28;20444;-78
2024/01/27 08:48:49;;;;;;;3.00;1.53;;;1.90;99.90;;;;;;5094405;28;20505;-78
2024/01/27 08:51:16;;;;;;;1.03;1.03;;;2.40;99.90;;;;;;5094165;28;20999;-78
2024/01/27 08:53:48;;;;;;;2.37;0.77;;;2.20;99.90;;;;;;5094201;28;20455;-78
2024/01/27 08:56:15;;;;;;;1.53;0.67;;;2.50;99.90;;;;;;5094305;28;20974;-78
2024/01/27 08:58:42;;;;;;;2.23;0.90;;;2.70;99.90;;;;;;5094235;28;20789;-78
2024/01/27 09:01:12;;;;;;;0.40;0.40;;;3.10;99.90;;;;;;5093585;28;20472;-78
2024/01/27 09:03:40;;;;;;;0.40;0.40;;;3.60;99.90;;;;;;5094364;28;20431;-78
2024/01/27 09:06:07;;;;;;;0.50;0.50;;;4.40;99.90;;;;;;5095294;28;20435;-79
2024/01/27 09:08:34;;;;;;;1.77;1.27;;;5.50;99.90;;;;;;5093860;28;20440;-79
2024/01/27 09:11:01;;;;;;;0.80;0.63;;;6.80;99.90;;;;;;5093770;28;20464;-79
2024/01/27 09:13:28;;;;;;;1.03;0.63;;;8.10;99.90;;;;;;5093999;28;20444;-79
2024/01/27 09:15:55;;;;;;;0.60;0.60;;;9.30;99.90;;;;;;5092903;28;20440;-79
2024/01/27 09:18:23;;;;;;;0.53;0.53;;;10.10;99.90;;;;;;5093455;28;20458;-79
2024/01/27 09:20:50;;;;;;;13.13;1.20;;;10.80;99.90;;;;;;5094111;28;20467;-80
2024/01/27 09:23:17;;;;;;;0.80;0.80;;;11.30;99.90;;;;;;5097415;28;20956;-80
2024/01/27 09:25:44;;;;;;;0.60;0.60;;;12.30;99.90;;;;;;5095506;28;20443;-81
2024/01/27 09:28:11;;;;;;;3.10;0.80;;;13.40;99.90;;;;;;5095303;28;20921;-81
2024/01/27 09:30:38;;;;;;;1.40;0.77;;;14.50;99.90;;;;;;5096897;28;20563;-81
2024/01/27 09:33:05;;;;;;;0.67;0.60;;;15.20;99.90;;;;;;5100921;28;20482;-81
2024/01/27 09:35:33;;;;;;;3.10;1.33;;;15.70;99.90;;;;;;5099481;28;20947;-81
2024/01/27 09:38:00;;;;;;;2.37;1.00;;;15.90;99.90;;;;;;5098560;28;20417;-80
2024/01/27 09:40:26;;;;;;;1.30;1.20;;;15.90;99.90;;;;;;5098757;28;20455;-80
2024/01/27 09:42:53;;;;;;;1.47;1.10;;;15.90;99.80;;;;;;5098803;28;20448;-80
2024/01/27 09:45:22;;;;;;;2.83;1.07;;;15.70;99.60;;;;;;5097764;28;20431;-81
2024/01/27 09:47:49;;;;;;;4.20;1.20;;;15.20;99.90;;;;;;5098146;28;20479;-80
2024/01/27 09:50:18;;;;;;;1.30;1.00;;;14.90;99.90;;;;;;5097822;28;20468;-81
2024/01/27 09:52:46;;;;;;;1.80;1.30;;;14.70;99.90;;;;;;5096350;28;20479;-81
2024/01/27 09:55:13;;;;;;;4.27;1.27;;;14.50;99.90;;;;;;5097779;28;20444;-80
2024/01/27 09:57:40;;;;;;;0.93;0.93;;;14.40;99.90;;;;;;5097251;28;20440;-80
2024/01/27 10:00:11;;;;;;;0.80;0.80;;;13.80;99.90;;;;;;5096131;28;20948;-80
2024/01/27 10:02:40;;;;;;;2.27;1.27;;;13.90;99.90;;;;;;5096491;28;20420;-80
2024/01/27 10:05:09;;;;;;;2.30;1.33;;;13.80;99.90;;;;;;5096659;28;20436;-80
2024/01/27 10:07:35;;;;;;;1.13;1.13;;;14.00;99.90;;;;;;5096136;28;20444;-80
2024/01/27 10:10:05;;;;;;;4.13;1.57;;;14.20;99.90;;;;;;5095963;28;20432;-81
2024/01/27 10:12:33;;;;;;;5.07;1.87;;;14.50;99.90;;;;;;5097301;28;20522;-81
2024/01/27 10:15:00;;;;;;;1.67;1.27;;;15.10;99.90;;;;;;5095275;28;20997;-81
2024/01/27 10:17:32;;;;;;;1.10;1.10;;;15.20;99.70;;;;;;5095872;28;20439;-80
2024/01/27 10:20:03;;;;;;;2.53;1.43;;;14.80;99.10;;;;;;5096147;28;20432;-81
2024/01/27 10:22:30;;;;;;;3.73;0.97;;;14.30;99.50;;;;;;5094961;28;20432;-81
2024/01/27 10:24:56;;;;;;;3.07;0.90;;;13.50;99.90;;;;;;5096016;28;20428;-81
2024/01/27 10:27:24;;;;;;;5.03;1.30;;;12.40;99.90;;;;;;5098562;28;20547;-80
2024/01/27 10:29:55;;;;;;;3.20;1.20;;;10.80;99.90;;;;;;5099822;28;20439;-81
2024/01/27 10:32:23;;;;;;;1.33;1.00;;;10.80;99.90;;;;;;5098052;28;20588;-81
2024/01/27 10:34:50;;;;;;;1.63;1.10;;;10.20;99.90;;;;;;5098104;28;20465;-80
2024/01/27 10:37:24;;;;;;;3.80;1.40;;;9.60;99.90;;;;;;5098435;28;20443;-80
2024/01/27 10:39:59;;;;;;;5.83;1.53;;;8.80;99.90;;;;;;5099125;28;20436;-81
2024/01/27 10:42:29;;;;;;;1.13;0.93;;;8.70;99.90;;;;;;5099007;28;20897;-80
2024/01/27 10:44:59;;;;;;;3.03;1.17;;;8.50;99.90;;;;;;5100111;28;20444;-80
2024/01/27 10:47:27;;;;;;;1.03;1.00;;;8.20;99.90;;;;;;5099062;28;20497;-79
2024/01/27 10:49:57;;;;;;;1.23;0.90;;;7.80;99.90;;;;;;5098039;28;20482;-80
2024/01/27 10:52:28;;;;;;;2.17;1.07;;;7.70;99.90;;;;;;5098431;28;20475;-79
2024/01/27 10:54:58;;;;;;;0.73;0.67;;;7.60;99.90;;;;;;5096562;28;20436;-79
2024/01/27 10:57:27;;;;;;;1.20;1.10;;;7.60;99.90;;;;;;5096288;28;20417;-79
2024/01/27 10:59:54;;;;;;;0.70;0.67;;;7.50;99.90;;;;;;5096115;28;20440;-79
2024/01/27 11:02:22;;;;;;;0.97;0.87;;;7.50;99.90;;;;;;5095897;28;20446;-79
2024/01/27 11:04:50;;;;;;;3.27;0.70;;;7.20;99.90;;;;;;5096278;28;20447;-79
2024/01/27 11:07:19;;;;;;;2.13;1.37;;;7.10;99.90;;;;;;5096218;28;20450;-79
2024/01/27 11:09:47;;;;;;;0.70;0.70;;;7.00;99.90;;;;;;5096348;28;20440;-79
2024/01/27 11:12:15;;;;;;;0.87;0.50;;;6.90;99.90;;;;;;5098985;28;20596;-79
2024/01/27 11:14:45;;;;;;;2.80;1.10;;;6.90;99.90;;;;;;5095733;28;20444;-79
2024/01/27 11:17:11;;;;;;;1.47;1.00;;;6.80;99.90;;;;;;5096129;28;20894;-79
2024/01/27 11:19:41;;;;;;;0.73;0.70;;;6.80;99.90;;;;;;5095994;28;20432;-79
2024/01/27 11:22:07;;;;;;;0.70;0.70;;;6.80;99.90;;;;;;5096484;28;20460;-79
2024/01/27 11:24:35;;;;;;;1.27;0.93;;;6.80;99.90;;;;;;5095597;28;20451;-79
2024/01/27 11:27:03;;;;;;;1.23;1.00;;;6.60;99.90;;;;;;5096537;28;20868;-78
2024/01/27 11:29:31;;;;;;;1.43;1.23;;;6.50;99.90;;;;;;5095891;28;20455;-79
2024/01/27 11:32:03;;;;;;;1.63;0.63;;;6.40;99.90;;;;;;5096425;28;20532;-79
2024/01/27 11:34:46;;;;;;;1.00;0.67;;;6.30;99.90;;;;;;5104762;28;20819;-79
2024/01/27 11:37:14;;;;;;;1.10;0.63;;;6.50;99.90;;;;;;5100580;28;20995;-79
2024/01/27 11:39:42;;;;;;;1.13;1.03;;;6.50;99.90;;;;;;5100757;28;20497;-79
2024/01/27 11:42:11;;;;;;;4.47;0.93;;;6.60;99.90;;;;;;5533516;22;20984;-78
2024/01/27 11:44:39;;;;;;;0.60;0.60;;;;;;;;;;5075892;28;20486;-78
2024/01/27 11:47:15;;;;;;;1.00;0.50;;;6.60;99.90;;;;;;5078434;28;20437;-79
2024/01/27 11:49:43;;;;;;;0.73;0.70;;;6.50;99.90;;;;;;5076731;28;20436;-79
2024/01/27 11:52:09;;;;;;;5.27;1.33;;;6.50;99.90;;;;;;5083972;22;20849;-79
2024/01/27 11:54:38;;;;;;;0.90;0.60;;;6.50;99.90;;;;;;5077749;28;20444;-79
2024/01/27 11:57:05;;;;;;;1.63;1.00;;;6.60;99.90;;;;;;5075712;28;20881;-79
2024/01/27 11:59:34;;;;;;;1.37;0.63;;;6.60;99.90;;;;;;5075169;28;20433;-79
2024/01/27 12:02:03;;;;;;;0.80;0.50;;;6.60;99.90;;;;;;5093565;28;20464;-79
2024/01/27 12:04:31;;;;;;;1.07;0.80;;;6.60;99.90;;;;;;5095488;28;20409;-78
2024/01/27 12:06:58;;;;;;;0.70;0.50;;;6.70;99.90;;;;;;5095829;28;20440;-79
2024/01/27 12:09:25;;;;;;;0.90;0.73;;;6.70;99.90;;;;;;5095471;28;20459;-79
2024/01/27 12:16:57;;;;;;;15.30;1.50;;;6.40;99.90;;;;;;5013881;28;20513;-80
2024/01/27 12:19:23;;;;;;;1.37;1.10;;;6.30;99.90;;;;;;5014908;28;20458;-80
2024/01/27 12:21:52;;;;;;;0.60;0.50;;;6.20;99.90;;;;;;5870655;22;20457;-80
2024/01/27 12:24:19;;;;;;;0.60;0.60;;;6.20;99.90;;;;;;5074614;28;20429;-80
2024/01/27 12:26:46;;;;;;;1.90;0.60;;;6.20;99.90;;;;;;5074874;28;20453;-80
2024/01/27 12:29:13;;;;;;;1.30;1.20;;;6.30;99.90;;;;;;5074948;28;20820;-80
2024/01/27 12:31:40;;;;;;;0.50;0.50;;;6.20;99.90;;;;;;5074587;28;20452;-80
2024/01/27 12:34:09;;;;;;;0.67;0.67;;;6.30;99.90;;;;;;5074910;28;20484;-80
2024/01/27 12:36:41;;;;;;;1.57;0.40;;;6.30;99.90;;;;;;5074824;28;20445;-80
2024/01/27 12:39:10;;;;;;;0.50;0.40;;;6.20;99.90;;;;;;5074635;28;20433;-80
2024/01/27 12:41:38;;;;;;;0.60;0.43;;;6.20;99.90;;;;;;5074447;28;20469;-80
2024/01/27 12:44:06;;;;;;;1.73;0.60;;;6.20;99.90;;;;;;5074314;28;20472;-80
2024/01/27 12:46:32;;;;;;;1.63;0.70;;;6.10;99.90;;;;;;5075117;28;20459;-80
2024/01/27 12:48:59;;;;;;;0.60;0.60;;;7.30;99.90;;;;;;5074679;28;20464;-80
2024/01/27 12:51:26;;;;;;;0.50;0.40;;;;;;;;;;5073372;28;20552;-80
2024/01/27 12:53:53;;;;;;;0.50;0.50;;;6.00;99.90;;;;;;5074359;28;20463;-80
2024/01/27 12:56:21;;;;;;;1.50;0.40;;;6.00;99.90;;;;;;5074570;28;20452;-80
2024/01/27 12:58:48;;;;;;;0.70;0.50;;;;;;;;;;5074040;28;20449;-80
2024/01/27 13:01:15;;;;;;;0.60;0.50;;;6.10;99.90;;;;;;5074754;28;20812;-80
2024/01/27 13:03:42;;;;;;;0.33;0.33;;;6.10;99.90;;;;;;5076546;28;20513;-80
2024/01/27 13:06:10;;;;;;;3.07;0.60;;;;;;;;;;5076270;28;21002;-81
2024/01/27 13:08:37;;;;;;;0.60;0.30;;;6.20;99.90;;;;;;5078092;28;20444;-80
2024/01/27 13:11:04;;;;;;;0.40;0.30;;;5.50;99.90;;;;;;5074034;28;20453;-81
2024/01/27 13:13:32;;;;;;;1.13;0.40;;;7.20;99.90;;;;;;5074753;28;20477;-81
2024/01/27 13:15:59;;;;;;;0.53;0.53;;;8.20;99.90;;;;;;5074243;28;20437;-81
2024/01/27 13:18:26;;;;;;;0.80;0.50;;;6.20;99.90;;;;;;5074903;28;20445;-81
2024/01/27 13:20:53;;;;;;;4.00;0.87;;;6.20;99.90;;;;;;5073935;28;20456;-81
2024/01/27 13:23:35;;;;;;;0.57;0.57;;;5.90;99.90;;;;;;5081980;28;20494;-80
2024/01/27 13:26:03;;;;;;;0.70;0.70;;;;;;;;;;5081595;28;20433;-79
2024/01/27 13:28:29;;;;;;;2.03;0.80;;;6.20;99.90;;;;;;5073537;28;20445;-79
2024/01/27 13:30:57;;;;;;;0.73;0.60;;;6.20;99.90;;;;;;5073641;28;20474;-80